Time;durP1;ratioP1;P1;durP2;ratioP2;P2;SDS_P1;SDS_P2;PMS_P1;PMS_P2;Temp;Humidity;BMP_temperature;BMP_pressure;BME280_temperature;BME280_humidity;BME280_pressure;Samples;Min_cycle;Max_cycle;Signal;HPM_P1;HPM_P2
2023/04/06 00:00:11;;;;;;;;;;;;;;;17.04;67.87;100614.84;7402561;19;1853;-41
2023/04/06 00:02:40;;;;;;;;;;;;;;;17.08;68.56;100603.78;7401939;19;1811;-42
2023/04/06 00:05:08;;;;;;;;;;;;;;;17.23;68.04;100592.78;7401913;19;1800;-41
2023/04/06 00:07:38;;;;;;;;;;;;;;;17.21;68.07;100594.75;7402512;19;1595;-42
2023/04/06 00:10:07;;;;;;;;;;;;;;;17.24;68.11;100597.16;7401612;19;1615;-41
2023/04/06 00:12:39;;;;;;;;;;;;;;;17.16;68.20;100591.63;7401903;19;1533;-42
2023/04/06 00:15:08;;;;;;;;;;;;;;;17.12;68.24;100595.53;7401434;19;1383;-42
2023/04/06 00:17:36;;;;;;;;;;;;;;;17.03;68.46;100587.31;7401858;19;1677;-42
2023/04/06 00:20:06;;;;;;;;;;;;;;;17.04;68.36;100583.63;7401839;19;1998;-42
2023/04/06 00:22:35;;;;;;;;;;;;;;;16.96;68.17;100591.44;7399191;19;1935;-42
2023/04/06 00:25:03;;;;;;;;;;;;;;;16.94;68.81;100582.72;7400650;19;1965;-42
2023/04/06 00:27:32;;;;;;;;;;;;;;;16.92;68.60;100563.28;7400644;19;1514;-42
2023/04/06 00:30:03;;;;;;;;;;;;;;;16.93;68.62;100578.34;7401722;19;1444;-41
2023/04/06 00:32:31;;;;;;;;;;;;;;;16.85;68.81;100568.31;7401545;19;1950;-41
2023/04/06 00:35:01;;;;;;;;;;;;;;;16.85;68.55;100588.78;7400830;19;1720;-41
2023/04/06 00:37:29;;;;;;;;;;;;;;;16.84;68.86;100571.94;7400877;19;1643;-42
2023/04/06 00:39:58;;;;;;;;;;;;;;;16.84;68.87;100582.63;7400866;19;1656;-42
2023/04/06 00:42:27;;;;;;;;;;;;;;;16.85;68.43;100568.31;7399233;19;1868;-42
2023/04/06 00:44:56;;;;;;;;;;;;;;;16.77;68.53;100572.53;7401012;19;1607;-42
2023/04/06 00:47:27;;;;;;;;;;;;;;;16.76;68.35;100565.50;7401053;19;1957;-42
2023/04/06 00:49:56;;;;;;;;;;;;;;;16.79;68.21;100566.09;7401454;19;1891;-41
2023/04/06 00:52:25;;;;;;;;;;;;;;;16.73;68.53;100569.25;7400907;19;1619;-42
2023/04/06 00:54:54;;;;;;;;;;;;;;;16.73;68.62;100557.72;7400615;19;1897;-41
2023/04/06 00:57:23;;;;;;;;;;;;;;;16.72;68.53;100572.91;7400583;19;1866;-41
2023/04/06 00:59:51;;;;;;;;;;;;;;;16.75;68.40;100566.47;7400317;19;2043;-42
2023/04/06 01:02:19;;;;;;;;;;;;;;;16.81;68.64;100555.28;7407566;19;1853;-41
2023/04/06 01:04:50;;;;;;;;;;;;;;;17.00;68.08;100549.31;7415088;19;1634;-42
2023/04/06 01:07:19;;;;;;;;;;;;;;;16.91;67.63;100558.94;7414670;19;1679;-41
2023/04/06 01:09:48;;;;;;;;;;;;;;;16.93;67.70;100542.75;7414224;19;1956;-42
2023/04/06 01:12:16;;;;;;;;;;;;;;;16.90;67.99;100542.03;7415034;19;1983;-41
2023/04/06 01:14:45;;;;;;;;;;;;;;;16.91;68.18;100556.28;7414097;19;2137;-42
2023/04/06 01:17:13;;;;;;;;;;;;;;;16.90;67.62;100550.06;7414231;19;1824;-41
2023/04/06 01:19:42;;;;;;;;;;;;;;;16.87;67.74;100554.78;7414552;19;1519;-42
2023/04/06 01:22:33;;;;;;;;;;;;;;;16.75;67.96;100535.28;7413076;19;1855;-42
2023/04/06 01:25:04;;;;;;;;;;;;;;;16.73;68.35;100545.22;7412773;19;1629;-42
2023/04/06 01:27:33;;;;;;;;;;;;;;;16.76;68.16;100544.13;7414349;19;2012;-41
2023/04/06 01:30:02;;;;;;;;;;;;;;;16.68;68.38;100518.91;7414207;19;1421;-42
2023/04/06 01:32:30;;;;;;;;;;;;;;;16.62;68.67;100522.09;7414129;19;2100;-41
2023/04/06 01:34:58;;;;;;;;;;;;;;;16.67;68.57;100516.34;7413581;19;1641;-41
2023/04/06 01:37:27;;;;;;;;;;;;;;;16.64;68.35;100528.16;7414287;19;1426;-42
2023/04/06 01:39:58;;;;;;;;;;;;;;;16.63;68.66;100512.25;7413468;19;1944;-41
2023/04/06 01:42:30;;;;;;;;;;;;;;;16.69;68.67;100535.75;7411738;19;1862;-42
2023/04/06 01:44:59;;;;;;;;;;;;;;;16.90;67.68;100518.00;7414476;19;1313;-41
2023/04/06 01:47:28;;;;;;;;;;;;;;;17.57;66.01;100504.41;7413882;19;1530;-42
2023/04/06 01:49:57;;;;;;;;;;;;;;;18.37;64.09;100510.81;7414290;19;1604;-42
2023/04/06 01:52:25;;;;;;;;;;;;;;;19.08;61.62;100490.00;7414142;19;1438;-42
2023/04/06 01:54:57;;;;;;;;;;;;;;;19.47;61.26;100481.88;7411356;19;2108;-41
2023/04/06 01:57:26;;;;;;;;;;;;;;;19.78;60.42;100494.25;7413572;19;1512;-41
2023/04/06 01:59:57;;;;;;;;;;;;;;;19.86;59.96;100486.31;7413503;19;1944;-42
2023/04/06 02:02:26;;;;;;;;;;;;;;;19.88;59.86;100494.22;7411451;19;1858;-41
2023/04/06 02:04:55;;;;;;;;;;;;;;;19.86;59.98;100470.19;7413466;19;1703;-41
2023/04/06 02:07:25;;;;;;;;;;;;;;;19.80;60.13;100474.31;7413166;19;1553;-41
2023/04/06 02:09:56;;;;;;;;;;;;;;;19.60;60.94;100476.19;7413678;19;1593;-41
2023/04/06 02:12:25;;;;;;;;;;;;;;;19.54;60.98;100481.31;7411868;19;1764;-41
2023/04/06 02:14:56;;;;;;;;;;;;;;;19.64;61.21;100484.81;7403689;19;1660;-41
2023/04/06 02:17:44;;;;;;;;;;;;;;;19.64;61.05;100471.38;7406161;19;1828;-41
2023/04/06 02:20:13;;;;;;;;;;;;;;;19.78;60.44;100473.63;7405865;19;1968;-41
2023/04/06 02:22:42;;;;;;;;;;;;;;;19.82;60.48;100480.38;7403906;19;1850;-41
2023/04/06 02:25:11;;;;;;;;;;;;;;;19.84;60.42;100456.94;7403430;19;1699;-41
2023/04/06 02:27:40;;;;;;;;;;;;;;;19.93;60.14;100459.72;7404756;19;1737;-42
2023/04/06 02:30:11;;;;;;;;;;;;;;;19.98;60.10;100462.81;7405700;19;1503;-41
2023/04/06 02:32:40;;;;;;;;;;;;;;;19.86;60.16;100460.31;7402952;19;1630;-42
2023/04/06 02:35:10;;;;;;;;;;;;;;;19.95;60.21;100452.34;7403310;19;1659;-41
2023/04/06 02:37:38;;;;;;;;;;;;;;;20.03;59.98;100468.53;7404090;19;1263;-42
2023/04/06 02:40:07;;;;;;;;;;;;;;;19.96;60.49;100460.25;7403858;19;1747;-42
2023/04/06 02:42:35;;;;;;;;;;;;;;;20.02;60.14;100461.50;7401729;19;1853;-41
2023/04/06 02:45:04;;;;;;;;;;;;;;;20.00;59.83;100460.81;7402979;19;1437;-42
2023/04/06 02:47:35;;;;;;;;;;;;;;;20.06;60.04;100461.03;7402857;19;1600;-41
2023/04/06 02:50:04;;;;;;;;;;;;;;;20.09;59.72;100454.53;7403092;19;1456;-41
2023/04/06 02:52:32;;;;;;;;;;;;;;;20.15;59.95;100451.22;7405253;19;1613;-42
2023/04/06 02:55:00;;;;;;;;;;;;;;;20.18;59.93;100445.56;7404748;19;2971;-42
2023/04/06 02:57:29;;;;;;;;;;;;;;;20.18;59.94;100450.94;7403674;19;1550;-42
2023/04/06 02:59:58;;;;;;;;;;;;;;;20.17;59.65;100446.56;7404668;19;1638;-42
2023/04/06 03:02:27;;;;;;;;;;;;;;;20.25;59.84;100461.91;7402808;19;1856;-42
2023/04/06 03:04:58;;;;;;;;;;;;;;;20.24;59.29;100449.50;7403434;19;1518;-42
2023/04/06 03:07:26;;;;;;;;;;;;;;;20.32;59.46;100443.38;7404076;19;1520;-42
2023/04/06 03:09:54;;;;;;;;;;;;;;;20.37;59.58;100447.31;7403679;19;1558;-42
2023/04/06 03:12:23;;;;;;;;;;;;;;;20.23;59.66;100435.25;7404004;19;1975;-42
2023/04/06 03:14:51;;;;;;;;;;;;;;;20.15;59.98;100453.91;7403388;19;1422;-42
2023/04/06 03:17:20;;;;;;;;;;;;;;;20.15;59.67;100437.81;7403716;19;1744;-42
2023/04/06 03:19:49;;;;;;;;;;;;;;;20.18;59.74;100459.00;7403166;19;1811;-42
2023/04/06 03:22:22;;;;;;;;;;;;;;;20.15;60.02;100442.34;7402900;19;1865;-42
2023/04/06 03:24:50;;;;;;;;;;;;;;;20.15;60.27;100459.28;7399994;19;1795;-42
2023/04/06 03:27:19;;;;;;;;;;;;;;;20.19;60.00;100449.09;7401945;19;1354;-41
2023/04/06 03:29:47;;;;;;;;;;;;;;;20.21;60.22;100460.53;7403472;19;2592;-42
2023/04/06 03:32:15;;;;;;;;;;;;;;;20.17;60.27;100468.03;7402089;19;1689;-41
2023/04/06 03:34:44;;;;;;;;;;;;;;;20.12;60.15;100451.56;7401708;19;1738;-42
2023/04/06 03:37:13;;;;;;;;;;;;;;;20.13;60.21;100439.81;7402245;19;1569;-41
2023/04/06 03:39:44;;;;;;;;;;;;;;;20.21;60.15;100447.97;7402677;19;1868;-42
2023/04/06 03:42:12;;;;;;;;;;;;;;;20.11;60.24;100455.22;7401550;19;1864;-41
2023/04/06 03:44:42;;;;;;;;;;;;;;;20.18;60.23;100448.25;7402189;19;1835;-42
2023/04/06 03:47:10;;;;;;;;;;;;;;;20.23;60.01;100439.75;7399240;19;1481;-44
2023/04/06 03:49:38;;;;;;;;;;;;;;;20.27;59.80;100444.69;7401743;19;2069;-44
2023/04/06 03:52:07;;;;;;;;;;;;;;;20.34;59.91;100452.13;7401835;19;1793;-44
2023/04/06 03:54:36;;;;;;;;;;;;;;;20.30;59.97;100450.75;7402416;19;1618;-44
2023/04/06 03:57:07;;;;;;;;;;;;;;;20.30;59.94;100445.38;7401822;19;1755;-44
2023/04/06 03:59:35;;;;;;;;;;;;;;;20.33;60.23;100447.75;7401281;19;1343;-44
2023/04/06 04:02:05;;;;;;;;;;;;;;;19.80;61.55;100452.84;7402577;19;2322;-44
2023/04/06 04:04:34;;;;;;;;;;;;;;;19.31;62.81;100459.34;7401961;19;1755;-44
2023/04/06 04:07:03;;;;;;;;;;;;;;;18.96;63.65;100455.44;7400315;19;1826;-44
2023/04/06 04:09:33;;;;;;;;;;;;;;;18.79;64.27;100467.72;7401586;19;1442;-44
2023/04/06 04:12:02;;;;;;;;;;;;;;;18.69;64.19;100471.22;7401280;19;1822;-44
2023/04/06 04:14:33;;;;;;;;;;;;;;;18.64;64.59;100462.78;7400875;19;1614;-44
2023/04/06 04:17:01;;;;;;;;;;;;;;;18.97;63.60;100457.16;7400823;19;1659;-44
2023/04/06 04:19:30;;;;;;;;;;;;;;;19.39;62.65;100465.66;7401124;19;1595;-44
2023/04/06 04:21:59;;;;;;;;;;;;;;;19.58;62.02;100461.25;7401682;19;1864;-45
2023/04/06 04:24:27;;;;;;;;;;;;;;;19.53;62.01;100456.31;7400705;19;1686;-42
2023/04/06 04:26:56;;;;;;;;;;;;;;;19.09;63.92;100469.41;7401010;19;1825;-42
2023/04/06 04:29:24;;;;;;;;;;;;;;;18.73;64.39;100446.84;7400392;19;1650;-42
2023/04/06 04:31:55;;;;;;;;;;;;;;;18.72;64.51;100469.25;7401104;19;1964;-42
2023/04/06 04:34:25;;;;;;;;;;;;;;;19.09;63.46;100450.63;7399577;19;1820;-42
2023/04/06 04:36:53;;;;;;;;;;;;;;;19.58;61.98;100458.56;7397753;19;1879;-42
2023/04/06 04:39:21;;;;;;;;;;;;;;;19.77;61.41;100458.50;7399303;19;1813;-42
2023/04/06 04:41:50;;;;;;;;;;;;;;;19.22;63.67;100464.59;7397984;19;1859;-42
2023/04/06 04:44:18;;;;;;;;;;;;;;;18.84;64.00;100463.66;7397085;19;1591;-43
2023/04/06 04:46:46;;;;;;;;;;;;;;;18.62;65.00;100474.59;7400467;19;1274;-42
2023/04/06 04:49:17;;;;;;;;;;;;;;;18.78;64.16;100464.19;7398903;19;1839;-42
2023/04/06 04:51:46;;;;;;;;;;;;;;;19.10;63.62;100467.56;7401723;19;2005;-42
2023/04/06 04:54:15;;;;;;;;;;;;;;;19.37;62.82;100470.31;7398823;19;1790;-42
2023/04/06 04:56:43;;;;;;;;;;;;;;;19.01;63.93;100478.16;7399264;19;1628;-42
2023/04/06 04:59:12;;;;;;;;;;;;;;;18.67;64.66;100473.19;7400132;19;1943;-42
2023/04/06 05:01:40;;;;;;;;;;;;;;;18.58;65.14;100479.41;7395985;19;1859;-42
2023/04/06 05:04:08;;;;;;;;;;;;;;;18.78;64.13;100468.69;7399369;19;1848;-42
2023/04/06 05:06:39;;;;;;;;;;;;;;;19.24;63.17;100476.00;7401642;19;2100;-42
2023/04/06 05:09:08;;;;;;;;;;;;;;;19.36;62.88;100471.34;7400188;19;2214;-42
2023/04/06 05:11:36;;;;;;;;;;;;;;;18.97;63.90;100492.81;7400594;19;1883;-42
2023/04/06 05:14:06;;;;;;;;;;;;;;;18.63;65.13;100478.97;7400755;19;2126;-42
2023/04/06 05:16:34;;;;;;;;;;;;;;;18.55;65.25;100490.38;7401563;19;1977;-42
2023/04/06 05:19:03;;;;;;;;;;;;;;;18.82;64.27;100480.84;7400406;19;1954;-42
2023/04/06 05:21:31;;;;;;;;;;;;;;;19.04;63.13;100464.47;7400425;19;2577;-42
2023/04/06 05:24:02;;;;;;;;;;;;;;;19.08;62.58;100459.69;7397477;19;2008;-42
2023/04/06 05:26:31;;;;;;;;;;;;;;;19.29;61.47;100462.16;7399737;19;1914;-42
2023/04/06 05:28:59;;;;;;;;;;;;;;;19.23;61.66;100458.22;7400562;19;1938;-42
2023/04/06 05:31:27;;;;;;;;;;;;;;;19.22;61.50;100471.78;7400752;19;1879;-42
2023/04/06 05:33:56;;;;;;;;;;;;;;;19.20;62.02;100469.25;7400637;19;1666;-42
2023/04/06 05:36:26;;;;;;;;;;;;;;;19.19;62.09;100459.50;7399607;19;2187;-42
2023/04/06 05:38:55;;;;;;;;;;;;;;;18.65;62.46;100464.47;7399855;19;1873;-42
2023/04/06 05:41:26;;;;;;;;;;;;;;;18.05;60.35;100469.88;7399656;19;2076;-42
2023/04/06 05:43:55;;;;;;;;;;;;;;;17.71;56.95;100474.66;7394567;19;2087;-42
2023/04/06 05:46:24;;;;;;;;;;;;;;;17.53;55.42;100476.22;7399908;19;1923;-42
2023/04/06 05:48:53;;;;;;;;;;;;;;;17.45;54.29;100474.25;7403410;19;2189;-42
2023/04/06 05:51:21;;;;;;;;;;;;;;;17.36;53.29;100458.97;7405419;19;2122;-42
2023/04/06 05:53:49;;;;;;;;;;;;;;;17.29;52.69;100458.69;7405346;19;1095;-42
2023/04/06 05:56:18;;;;;;;;;;;;;;;17.18;52.80;100472.94;7405725;19;1692;-42
2023/04/06 05:58:49;;;;;;;;;;;;;;;16.96;52.59;100462.38;7405721;19;2025;-42
2023/04/06 06:01:17;;;;;;;;;;;;;;;16.87;51.69;100462.19;7404748;19;1813;-42
2023/04/06 06:03:46;;;;;;;;;;;;;;;16.66;50.87;100443.44;7405619;19;1849;-42
2023/04/06 06:06:14;;;;;;;;;;;;;;;16.48;50.61;100467.16;7407378;19;1133;-42
2023/04/06 06:08:42;;;;;;;;;;;;;;;16.38;49.50;100474.22;7405767;19;1953;-42
2023/04/06 06:11:11;;;;;;;;;;;;;;;16.42;49.37;100462.31;7406051;19;1847;-42
2023/04/06 06:13:39;;;;;;;;;;;;;;;16.40;49.24;100463.44;7402442;19;1109;-42
2023/04/06 06:16:10;;;;;;;;;;;;;;;16.39;48.58;100469.72;7406752;19;1862;-42
2023/04/06 06:18:39;;;;;;;;;;;;;;;16.30;48.87;100458.00;7406378;19;2034;-42
2023/04/06 06:21:07;;;;;;;;;;;;;;;16.35;48.50;100446.94;7406523;19;1122;-42
2023/04/06 06:23:37;;;;;;;;;;;;;;;16.29;48.44;100470.50;7404237;19;2072;-42
2023/04/06 06:26:05;;;;;;;;;;;;;;;16.35;48.49;100454.94;7405652;19;1787;-42
2023/04/06 06:28:34;;;;;;;;;;;;;;;16.34;48.57;100454.09;7403998;19;2112;-42
2023/04/06 06:31:02;;;;;;;;;;;;;;;16.37;48.25;100456.50;7402508;19;1041;-42
2023/04/06 06:33:33;;;;;;;;;;;;;;;16.28;48.10;100467.94;7406057;19;1995;-42
2023/04/06 06:36:02;;;;;;;;;;;;;;;16.22;48.00;100453.28;7406298;19;2175;-42
2023/04/06 06:38:30;;;;;;;;;;;;;;;16.06;47.91;100455.50;7405859;19;2157;-42
2023/04/06 06:40:58;;;;;;;;;;;;;;;15.96;47.15;100467.91;7406311;19;1038;-42
2023/04/06 06:43:27;;;;;;;;;;;;;;;15.94;46.80;100467.16;7400871;19;1860;-42
2023/04/06 06:45:55;;;;;;;;;;;;;;;15.88;47.00;100476.50;7403585;19;1098;-42
2023/04/06 06:48:24;;;;;;;;;;;;;;;15.91;46.46;100469.09;7403130;19;2255;-42
2023/04/06 06:50:55;;;;;;;;;;;;;;;15.81;46.45;100475.28;7403738;19;1801;-42
2023/04/06 06:53:23;;;;;;;;;;;;;;;15.75;46.15;100476.63;7405321;19;2022;-42
2023/04/06 06:55:51;;;;;;;;;;;;;;;15.73;46.16;100467.88;7402411;19;2153;-42
2023/04/06 06:58:20;;;;;;;;;;;;;;;15.76;46.28;100462.31;7401125;19;1908;-42
2023/04/06 07:00:49;;;;;;;;;;;;;;;15.92;46.23;100461.94;7402724;19;1035;-42
2023/04/06 07:03:17;;;;;;;;;;;;;;;15.88;46.43;100476.50;7403280;19;2098;-42
2023/04/06 07:05:52;;;;;;;;;;;;;;;15.89;47.92;100476.34;7404062;19;1939;-42
2023/04/06 07:08:24;;;;;;;;;;;;;;;16.16;48.19;100469.78;7404009;19;2033;-42
2023/04/06 07:10:53;;;;;;;;;;;;;;;17.13;48.43;100469.81;7403961;19;1946;-42
2023/04/06 07:13:22;;;;;;;;;;;;;;;18.09;46.74;100460.56;7403501;19;1623;-42
2023/04/06 07:15:51;;;;;;;;;;;;;;;18.75;46.58;100463.63;7403799;19;1774;-42
2023/04/06 07:18:21;;;;;;;;;;;;;;;18.77;47.33;100450.94;7403965;19;1628;-42
2023/04/06 07:20:50;;;;;;;;;;;;;;;18.93;46.88;100439.66;7402206;19;1935;-42
2023/04/06 07:23:19;;;;;;;;;;;;;;;19.08;47.42;100451.66;7402335;19;1863;-42
2023/04/06 07:25:52;;;;;;;;;;;;;;;19.08;47.93;100447.13;7401420;19;1630;-42
2023/04/06 07:28:20;;;;;;;;;;;;;;;19.15;48.06;100451.91;7403006;19;1977;-42
2023/04/06 07:30:49;;;;;;;;;;;;;;;19.24;48.43;100435.81;7403338;19;2164;-42
2023/04/06 07:33:17;;;;;;;;;;;;;;;19.28;48.88;100445.25;7403457;19;1790;-42
2023/04/06 07:35:45;;;;;;;;;;;;;;;19.29;49.15;100448.75;7402904;19;1997;-42
2023/04/06 07:38:14;;;;;;;;;;;;;;;19.38;49.44;100445.22;7401816;19;2080;-42
2023/04/06 07:40:42;;;;;;;;;;;;;;;19.41;49.43;100447.59;7403548;19;1035;-42
2023/04/06 07:43:13;;;;;;;;;;;;;;;19.42;49.70;100445.78;7401639;19;1845;-42
2023/04/06 07:45:42;;;;;;;;;;;;;;;19.60;49.66;100459.28;7402095;19;3306;-42
2023/04/06 07:48:10;;;;;;;;;;;;;;;19.65;50.03;100451.59;7402640;19;1751;-42
2023/04/06 07:50:38;;;;;;;;;;;;;;;19.65;49.80;100438.19;7402085;19;1764;-42
2023/04/06 07:53:08;;;;;;;;;;;;;;;19.74;50.43;100448.09;7401972;19;1731;-42
2023/04/06 07:55:36;;;;;;;;;;;;;;;19.84;50.15;100440.81;7401117;19;1794;-42
2023/04/06 07:58:05;;;;;;;;;;;;;;;19.85;50.75;100458.59;7399613;19;1848;-42
2023/04/06 08:00:36;;;;;;;;;;;;;;;19.87;50.37;100447.72;7402579;19;1864;-42
2023/04/06 08:03:05;;;;;;;;;;;;;;;19.85;51.07;100458.59;7401961;19;1868;-42
2023/04/06 08:05:34;;;;;;;;;;;;;;;19.77;51.29;100450.44;7402170;19;1926;-42
2023/04/06 08:08:02;;;;;;;;;;;;;;;19.73;51.36;100451.75;7400145;19;1625;-42
2023/04/06 08:10:31;;;;;;;;;;;;;;;19.84;51.60;100442.66;7401200;19;1783;-42
2023/04/06 08:13:00;;;;;;;;;;;;;;;19.77;52.46;100449.63;7401181;19;1655;-42
2023/04/06 08:15:28;;;;;;;;;;;;;;;19.86;52.45;100460.31;7400729;19;1830;-42
2023/04/06 08:17:59;;;;;;;;;;;;;;;19.76;52.31;100438.03;7402016;19;1806;-42
2023/04/06 08:20:28;;;;;;;;;;;;;;;19.74;52.61;100448.09;7399800;19;2129;-42
2023/04/06 08:22:56;;;;;;;;;;;;;;;19.80;52.66;100436.75;7400637;19;2078;-42
2023/04/06 08:25:25;;;;;;;;;;;;;;;19.74;52.91;100445.41;7397681;19;1714;-42
2023/04/06 08:27:53;;;;;;;;;;;;;;;19.83;53.33;100449.00;7400388;19;2296;-42
2023/04/06 08:30:21;;;;;;;;;;;;;;;19.87;53.15;100439.66;7401919;19;1606;-42
2023/04/06 08:32:50;;;;;;;;;;;;;;;19.87;53.22;100428.94;7402326;19;1007;-42
2023/04/06 08:35:21;;;;;;;;;;;;;;;19.84;53.14;100434.63;7398544;19;1892;-42
2023/04/06 08:37:49;;;;;;;;;;;;;;;19.94;53.44;100442.63;7399069;19;2106;-42
2023/04/06 08:40:18;;;;;;;;;;;;;;;19.92;53.34;100453.50;7401206;19;1827;-42
2023/04/06 08:42:51;;;;;;;;;;;;;;;19.97;53.43;100439.63;7399324;19;1930;-42
2023/04/06 08:45:21;;;;;;;;;;;;;;;19.96;53.49;100430.75;7396427;19;1847;-42
2023/04/06 08:47:49;;;;;;;;;;;;;;;19.95;53.64;100422.81;7399653;19;1802;-42
2023/04/06 08:50:21;;;;;;;;;;;;;;;19.97;54.00;100447.69;7400556;19;2208;-42
2023/04/06 08:52:50;;;;;;;;;;;;;;;19.91;54.25;100430.31;7401216;19;1858;-42
2023/04/06 08:55:19;;;;;;;;;;;;;;;19.97;54.25;100442.31;7401906;19;1505;-42
2023/04/06 08:57:48;;;;;;;;;;;;;;;19.74;53.75;100428.47;7398923;19;1995;-42
2023/04/06 09:00:18;;;;;;;;;;;;;;;19.81;54.02;100446.47;7402148;19;1538;-42
2023/04/06 09:02:48;;;;;;;;;;;;;;;19.89;54.22;100447.59;7399307;19;1870;-42
2023/04/06 09:05:16;;;;;;;;;;;;;;;19.88;54.38;100429.81;7397298;19;1894;-42
2023/04/06 09:07:47;;;;;;;;;;;;;;;19.89;54.85;100435.00;7401180;19;1638;-42
2023/04/06 09:10:16;;;;;;;;;;;;;;;19.95;54.73;100441.63;7400163;19;1771;-42
2023/04/06 09:12:46;;;;;;;;;;;;;;;19.94;55.14;100432.72;7399547;19;1381;-43
2023/04/06 09:15:20;;;;;;;;;;;;;;;19.98;55.06;100441.31;7398934;19;2114;-42
2023/04/06 09:17:49;;;;;;;;;;;;;;;19.92;55.25;100431.19;7399601;19;1667;-42
2023/04/06 09:20:17;;;;;;;;;;;;;;;19.81;55.01;100432.22;7400456;19;2178;-42
2023/04/06 09:22:49;;;;;;;;;;;;;;;19.76;55.09;100438.03;7401711;19;1933;-42
2023/04/06 09:25:21;;;;;;;;;;;;;;;19.86;54.85;100454.94;7405058;19;1878;-42
2023/04/06 09:27:49;;;;;;;;;;;;;;;19.81;54.62;100437.59;7407440;19;1821;-42
2023/04/06 09:30:18;;;;;;;;;;;;;;;19.86;54.58;100449.56;7407131;19;1990;-42
2023/04/06 09:32:48;;;;;;;;;;;;;;;19.93;54.58;100427.50;7407123;19;2116;-42
2023/04/06 09:35:16;;;;;;;;;;;;;;;19.93;55.13;100446.28;7406006;19;1102;-42
2023/04/06 09:37:49;;;;;;;;;;;;;;;19.87;55.00;100439.66;7405643;19;1709;-42
2023/04/06 09:40:18;;;;;;;;;;;;;;;19.86;55.40;100438.84;7407335;19;1602;-42
2023/04/06 09:42:48;;;;;;;;;;;;;;;19.94;55.38;100439.94;7407276;19;2134;-43
2023/04/06 09:45:16;;;;;;;;;;;;;;;19.97;56.04;100443.16;7405855;19;1860;-42
2023/04/06 09:47:46;;;;;;;;;;;;;;;19.92;55.68;100423.16;7408003;19;2092;-42
2023/04/06 09:50:15;;;;;;;;;;;;;;;19.98;56.04;100441.31;7407479;19;1890;-42
2023/04/06 09:52:49;;;;;;;;;;;;;;;20.03;56.60;100422.91;7406866;19;2482;-42
2023/04/06 09:55:23;;;;;;;;;;;;;;;20.13;56.41;100441.66;7406894;19;1795;-42
2023/04/06 09:57:53;;;;;;;;;;;;;;;20.11;56.97;100430.22;7406484;19;2056;-42
2023/04/06 10:00:24;;;;;;;;;;;;;;;20.11;56.97;100436.44;7406614;19;1910;-42
2023/04/06 10:02:56;;;;;;;;;;;;;;;20.25;56.99;100453.88;7406817;19;2179;-42
2023/04/06 10:05:29;;;;;;;;;;;;;;;20.20;57.68;100430.16;7403274;19;1864;-43
2023/04/06 10:08:00;;;;;;;;;;;;;;;20.22;57.20;100438.91;7405671;19;1805;-43
2023/04/06 10:10:31;;;;;;;;;;;;;;;20.17;57.82;100414.34;7406324;19;1767;-42
2023/04/06 10:13:00;;;;;;;;;;;;;;;20.18;57.54;100437.53;7407423;19;1010;-43
2023/04/06 10:15:30;;;;;;;;;;;;;;;20.20;57.69;100448.13;7405510;19;1887;-42
2023/04/06 10:17:58;;;;;;;;;;;;;;;20.20;57.52;100423.97;7404424;19;2150;-43
2023/04/06 10:20:30;;;;;;;;;;;;;;;20.18;57.55;100424.09;7404922;19;1859;-43
2023/04/06 10:23:02;;;;;;;;;;;;;;;20.22;57.46;100438.91;7403646;19;2092;-42
2023/04/06 10:25:34;;;;;;;;;;;;;;;20.21;57.38;100429.19;7404038;19;1856;-42
2023/04/06 10:28:02;;;;;;;;;;;;;;;20.30;57.18;100438.16;7404979;19;1709;-42
2023/04/06 10:30:31;;;;;;;;;;;;;;;20.31;57.07;100425.56;7406257;19;1403;-42
2023/04/06 10:32:59;;;;;;;;;;;;;;;20.30;57.23;100405.09;7405445;19;2175;-42
2023/04/06 10:35:38;;;;;;;;;;;;;;;20.28;57.56;100421.34;7403173;19;1834;-42
2023/04/06 10:38:07;;;;;;;;;;;;;;;20.29;57.35;100430.25;7406000;19;2079;-43
2023/04/06 10:40:38;;;;;;;;;;;;;;;20.16;57.82;100423.41;7405582;19;1813;-43
2023/04/06 10:43:11;;;;;;;;;;;;;;;20.12;57.61;100410.44;7404281;19;1698;-43
2023/04/06 10:45:40;;;;;;;;;;;;;;;20.07;57.57;100418.94;7401390;19;1841;-43
2023/04/06 10:48:17;;;;;;;;;;;;;;;20.12;57.45;100411.28;7404107;19;1635;-43
2023/04/06 10:50:46;;;;;;;;;;;;;;;20.10;57.68;100409.75;7403891;19;1574;-42
2023/04/06 10:53:23;;;;;;;;;;;;;;;20.11;57.32;100393.47;7404799;19;1948;-42
2023/04/06 10:55:55;;;;;;;;;;;;;;;20.08;57.74;100404.53;7405563;19;1880;-42
2023/04/06 10:58:27;;;;;;;;;;;;;;;20.09;57.49;100395.47;7405294;19;1053;-43
2023/04/06 11:00:56;;;;;;;;;;;;;;;20.09;57.47;100398.16;7404965;19;1433;-42
2023/04/06 11:03:24;;;;;;;;;;;;;;;20.11;57.24;100384.59;7405042;19;2138;-43
2023/04/06 11:05:53;;;;;;;;;;;;;;;20.12;57.13;100383.59;7402500;19;2181;-42
2023/04/06 11:08:25;;;;;;;;;;;;;;;20.08;57.28;100387.59;7404280;19;1869;-42
2023/04/06 11:11:06;;;;;;;;;;;;;;;20.13;57.08;100396.84;7404959;19;1580;-42
2023/04/06 11:13:39;;;;;;;;;;;;;;;20.12;57.82;100376.38;7404273;19;1038;-43
2023/04/06 11:16:08;;;;;;;;;;;;;;;20.08;57.31;100384.91;7404057;19;1896;-42
2023/04/06 11:18:36;;;;;;;;;;;;;;;20.06;57.42;100375.16;7403950;19;1807;-42
2023/04/06 11:21:05;;;;;;;;;;;;;;;20.18;57.32;100385.69;7401826;19;1804;-42
2023/04/06 11:23:33;;;;;;;;;;;;;;;20.20;57.95;100384.53;7401615;19;1826;-42
2023/04/06 11:26:04;;;;;;;;;;;;;;;20.21;57.55;100378.16;7401308;19;1845;-42
2023/04/06 11:28:33;;;;;;;;;;;;;;;20.31;57.43;100399.53;7401468;19;1963;-43
2023/04/06 11:31:01;;;;;;;;;;;;;;;20.15;58.04;100377.91;7403282;19;1531;-42
2023/04/06 11:33:30;;;;;;;;;;;;;;;20.18;58.26;100366.88;7397924;19;1529;-42
2023/04/06 11:35:59;;;;;;;;;;;;;;;20.21;57.90;100371.94;7395216;19;1766;-42
2023/04/06 11:38:28;;;;;;;;;;;;;;;20.22;58.25;100374.47;7401919;19;1793;-42
2023/04/06 11:40:56;;;;;;;;;;;;;;;20.27;57.79;100382.94;7402202;19;1638;-42
2023/04/06 11:43:31;;;;;;;;;;;;;;;20.21;58.09;100367.44;7401613;19;1530;-42
2023/04/06 11:46:06;;;;;;;;;;;;;;;20.26;57.97;100370.47;7398778;19;2077;-42
2023/04/06 11:48:35;;;;;;;;;;;;;;;20.22;57.64;100369.09;7401903;19;1874;-42
2023/04/06 11:51:04;;;;;;;;;;;;;;;20.16;57.83;100369.72;7401766;19;1661;-42
2023/04/06 11:53:33;;;;;;;;;;;;;;;20.16;57.77;100358.97;7399535;19;1655;-42
2023/04/06 11:56:01;;;;;;;;;;;;;;;20.25;57.74;100365.25;7399581;19;1658;-43
2023/04/06 11:58:32;;;;;;;;;;;;;;;20.34;57.81;100368.88;7401566;19;1580;-43
2023/04/06 12:01:06;;;;;;;;;;;;;;;20.37;58.19;100372.09;7402498;19;1473;-43
2023/04/06 12:03:34;;;;;;;;;;;;;;;20.43;57.84;100365.25;7402070;19;1908;-43
2023/04/06 12:06:02;;;;;;;;;;;;;;;20.40;58.35;100362.88;7399705;19;2067;-43
2023/04/06 12:08:31;;;;;;;;;;;;;;;20.37;58.76;100355.13;7402129;19;1932;-43
2023/04/06 12:10:59;;;;;;;;;;;;;;;20.44;58.56;100358.91;7400910;19;2037;-44
2023/04/06 12:13:28;;;;;;;;;;;;;;;20.46;58.83;100364.97;7398632;19;1041;-43
2023/04/06 12:15:59;;;;;;;;;;;;;;;20.44;59.33;100358.91;7401257;19;2169;-43
2023/04/06 12:18:28;;;;;;;;;;;;;;;20.26;59.32;100342.78;7398905;19;1936;-44
2023/04/06 12:20:56;;;;;;;;;;;;;;;20.34;58.84;100342.88;7400920;19;2046;-43
2023/04/06 12:23:25;;;;;;;;;;;;;;;20.38;60.50;100351.47;7399681;19;2071;-43
2023/04/06 12:25:54;;;;;;;;;;;;;;;20.61;59.13;100347.31;7397666;19;1941;-43
2023/04/06 12:28:23;;;;;;;;;;;;;;;20.60;59.31;100352.84;7400484;19;1487;-43
2023/04/06 12:30:51;;;;;;;;;;;;;;;20.57;59.70;100351.28;7401640;19;1011;-43
2023/04/06 12:33:22;;;;;;;;;;;;;;;20.56;59.60;100348.75;7401589;19;1840;-43
2023/04/06 12:35:50;;;;;;;;;;;;;;;20.54;59.30;100330.09;7398745;19;1835;-43
2023/04/06 12:38:20;;;;;;;;;;;;;;;20.58;59.06;100346.75;7400318;19;1804;-43
2023/04/06 12:40:48;;;;;;;;;;;;;;;20.55;59.17;100342.53;7400042;19;2212;-43
2023/04/06 12:43:17;;;;;;;;;;;;;;;20.54;59.26;100322.03;7400577;19;1953;-43
2023/04/06 12:45:45;;;;;;;;;;;;;;;20.50;59.11;100336.78;7397787;19;1873;-43
2023/04/06 12:48:14;;;;;;;;;;;;;;;20.47;59.29;100339.75;7400001;19;1635;-43
2023/04/06 12:50:45;;;;;;;;;;;;;;;20.44;58.84;100334.72;7399466;19;1355;-43
2023/04/06 12:53:14;;;;;;;;;;;;;;;20.45;59.09;100333.72;7400091;19;2087;-43
2023/04/06 12:55:42;;;;;;;;;;;;;;;20.47;59.31;100350.50;7399728;19;1802;-43
2023/04/06 12:58:11;;;;;;;;;;;;;;;20.38;58.94;100324.59;7397097;19;1746;-43